createdAt,value
2022-09-13T00:00:46.994Z,24.30
2022-09-13T00:03:16.653Z,24.20
2022-09-13T00:05:44.874Z,24.20
2022-09-13T00:08:13.518Z,24.20
2022-09-13T00:10:42.526Z,24.20
2022-09-13T00:13:11.151Z,24.20
2022-09-13T00:15:43.757Z,24.20
2022-09-13T00:18:12.002Z,24.20
2022-09-13T00:20:41.661Z,24.20
2022-09-13T00:23:09.891Z,24.20
2022-09-13T00:25:38.218Z,24.20
2022-09-13T00:28:06.530Z,24.20
2022-09-13T00:30:34.826Z,24.20
2022-09-13T00:33:04.486Z,24.20
2022-09-13T00:35:32.990Z,24.20
2022-09-13T00:38:03.041Z,24.20
2022-09-13T00:40:31.307Z,24.20
2022-09-13T00:42:59.555Z,24.20
2022-09-13T00:45:28.095Z,24.20
2022-09-13T00:47:57.482Z,24.20
2022-09-13T00:50:28.438Z,24.20
2022-09-13T00:52:58.340Z,24.20
2022-09-13T00:55:30.355Z,24.20
2022-09-13T00:58:00.241Z,24.20
2022-09-13T01:00:28.476Z,24.20
2022-09-13T01:02:58.463Z,24.20
2022-09-13T01:05:28.515Z,24.20
2022-09-13T01:07:56.810Z,24.20
2022-09-13T01:10:25.064Z,24.10
2022-09-13T01:12:56.107Z,24.10
2022-09-13T01:15:24.376Z,24.20
2022-09-13T01:17:56.724Z,24.20
2022-09-13T01:20:29.463Z,24.20
2022-09-13T01:23:17.482Z,24.20
2022-09-13T01:26:30.797Z,24.20
2022-09-13T01:29:15.263Z,24.20
2022-09-13T01:31:46.827Z,24.20
2022-09-13T01:34:20.698Z,24.20
2022-09-13T01:37:34.206Z,24.20
2022-09-13T01:40:06.861Z,24.10
2022-09-13T01:42:47.117Z,24.20
2022-09-13T01:45:22.033Z,24.20
2022-09-13T01:47:53.438Z,24.20
2022-09-13T01:50:23.878Z,24.10
2022-09-13T01:52:54.972Z,24.10
2022-09-13T01:55:28.220Z,24.10
2022-09-13T01:57:59.306Z,24.20
2022-09-13T02:00:27.611Z,24.10
2022-09-13T02:02:59.295Z,24.20
2022-09-13T02:05:31.565Z,24.10
2022-09-13T02:08:01.737Z,24.10
2022-09-13T02:10:32.237Z,24.10
2022-09-13T02:13:00.730Z,24.10
2022-09-13T02:15:38.837Z,24.10
2022-09-13T02:18:12.569Z,24.10
2022-09-13T02:20:42.735Z,24.10
2022-09-13T02:23:12.835Z,24.10
2022-09-13T02:25:41.252Z,24.10
2022-09-13T02:28:12.953Z,24.10
2022-09-13T02:30:44.258Z,24.10
2022-09-13T02:33:14.899Z,24.10
2022-09-13T02:35:46.728Z,24.10
2022-09-13T02:38:17.888Z,24.10
2022-09-13T02:40:47.950Z,24.10
2022-09-13T02:43:17.199Z,24.10
2022-09-13T02:45:47.949Z,24.10
2022-09-13T02:48:20.689Z,24.10
2022-09-13T02:50:53.369Z,24.10
2022-09-13T02:53:25.626Z,24.10
2022-09-13T02:55:57.738Z,24.10
2022-09-13T02:58:28.663Z,24.10
2022-09-13T03:00:57.041Z,24.10
2022-09-13T03:03:26.644Z,24.10
2022-09-13T03:05:57.065Z,24.10
2022-09-13T03:08:25.338Z,24.10
2022-09-13T03:11:00.027Z,24.10
2022-09-13T03:13:45.991Z,24.10
2022-09-13T03:16:30.172Z,24.10
2022-09-13T03:19:08.169Z,24.10
2022-09-13T03:21:45.638Z,24.10
2022-09-13T03:24:18.214Z,24.10
2022-09-13T03:26:51.164Z,24.10
2022-09-13T03:29:31.539Z,24.10
2022-09-13T03:32:06.495Z,24.10
2022-09-13T03:34:41.510Z,24.10
2022-09-13T03:37:11.533Z,24.10
2022-09-13T03:39:42.865Z,24.10
2022-09-13T03:42:14.126Z,24.10
2022-09-13T03:44:42.341Z,24.10
2022-09-13T03:47:10.574Z,24.10
2022-09-13T03:49:40.145Z,24.10
2022-09-13T03:52:08.423Z,24.10
2022-09-13T03:54:38.342Z,24.00
2022-09-13T03:57:13.406Z,24.10
2022-09-13T03:59:44.202Z,24.10
2022-09-13T04:02:12.527Z,24.10
2022-09-13T04:04:42.611Z,24.10
2022-09-13T04:07:13.987Z,24.10
2022-09-13T04:09:42.306Z,24.00
2022-09-13T04:12:11.016Z,24.10
2022-09-13T04:14:39.321Z,24.10
2022-09-13T04:17:07.587Z,24.00
2022-09-13T04:19:35.827Z,24.00
2022-09-13T04:22:05.559Z,24.10
2022-09-13T04:24:33.814Z,24.00
2022-09-13T04:27:02.157Z,24.10
2022-09-13T04:29:31.687Z,24.00
2022-09-13T04:32:00.240Z,24.10
2022-09-13T04:34:28.531Z,24.00
2022-09-13T04:36:57.020Z,24.00
2022-09-13T04:39:26.614Z,24.10
2022-09-13T04:41:55.167Z,24.00
2022-09-13T04:44:24.384Z,24.00
2022-09-13T04:46:52.797Z,24.00
2022-09-13T04:49:21.925Z,24.00
2022-09-13T04:51:50.668Z,24.00
2022-09-13T04:54:18.967Z,24.00
2022-09-13T04:56:49.481Z,24.00
2022-09-13T04:59:20.181Z,24.00
2022-09-13T05:01:57.539Z,24.00
2022-09-13T05:04:25.775Z,24.00
2022-09-13T05:06:54.066Z,24.10
2022-09-13T05:09:22.293Z,24.00
2022-09-13T05:11:51.933Z,24.00
2022-09-13T05:14:22.959Z,24.00
2022-09-13T05:16:51.241Z,24.00
2022-09-13T05:19:19.514Z,24.00
2022-09-13T05:21:47.840Z,24.00
2022-09-13T05:24:16.086Z,24.00
2022-09-13T05:26:44.461Z,24.00
2022-09-13T05:29:14.046Z,24.00
2022-09-13T05:31:42.859Z,24.00
2022-09-13T05:34:12.491Z,24.00
2022-09-13T05:36:40.767Z,24.00
2022-09-13T05:39:33.828Z,24.00
2022-09-13T05:41:59.719Z,24.00
2022-09-13T05:44:29.332Z,24.00
2022-09-13T05:46:57.757Z,24.00
2022-09-13T05:49:25.982Z,24.00
2022-09-13T05:51:54.220Z,24.10
2022-09-13T05:54:22.474Z,24.10
2022-09-13T05:56:52.475Z,24.00
2022-09-13T05:59:20.731Z,24.00
2022-09-13T06:01:50.490Z,24.10
2022-09-13T06:04:18.828Z,24.00
2022-09-13T06:06:47.090Z,24.00
2022-09-13T06:09:15.406Z,24.10
2022-09-13T06:11:43.682Z,24.10
2022-09-13T06:14:12.040Z,24.10
2022-09-13T06:16:40.285Z,24.10
2022-09-13T06:19:09.902Z,24.10
2022-09-13T06:21:38.500Z,24.10
2022-09-13T06:24:07.565Z,24.10
2022-09-13T06:26:38.892Z,24.10
2022-09-13T06:29:07.130Z,24.10
2022-09-13T06:31:35.672Z,24.10
2022-09-13T06:34:04.683Z,24.20
2022-09-13T06:36:34.305Z,24.20
2022-09-13T06:39:02.789Z,24.20
2022-09-13T06:41:31.041Z,24.20
2022-09-13T06:43:59.985Z,24.20
2022-09-13T06:46:29.342Z,24.20
2022-09-13T06:49:00.361Z,24.20
2022-09-13T06:51:29.659Z,24.30
2022-09-13T06:53:59.990Z,24.20
2022-09-13T06:56:28.701Z,24.30
2022-09-13T06:58:58.392Z,24.20
2022-09-13T07:01:27.556Z,24.30
2022-09-13T07:03:58.672Z,24.30
2022-09-13T07:06:27.990Z,24.30
2022-09-13T07:08:56.879Z,24.30
2022-09-13T07:11:27.208Z,24.30
2022-09-13T07:13:56.688Z,24.30
2022-09-13T07:16:26.939Z,24.20
2022-09-13T07:18:55.610Z,24.20
2022-09-13T07:21:30.657Z,24.20
2022-09-13T07:23:59.231Z,24.20
2022-09-13T07:26:28.919Z,24.10
2022-09-13T07:28:57.962Z,24.10
2022-09-13T07:31:27.097Z,24.10
2022-09-13T07:33:56.228Z,24.10
2022-09-13T07:36:24.785Z,24.10
2022-09-13T07:38:53.053Z,24.10
2022-09-13T07:41:22.059Z,24.10
2022-09-13T07:43:51.776Z,24.10
2022-09-13T07:46:21.180Z,24.10
2022-09-13T07:48:49.561Z,24.10
2022-09-13T07:51:19.947Z,24.10
2022-09-13T07:53:48.535Z,24.20
2022-09-13T07:56:20.448Z,24.20
2022-09-13T07:58:51.166Z,24.20
2022-09-13T08:01:20.728Z,24.20
2022-09-13T08:03:51.917Z,24.20
2022-09-13T08:06:22.446Z,24.10
2022-09-13T08:08:50.715Z,24.20
2022-09-13T08:11:19.940Z,24.20
2022-09-13T08:13:48.562Z,24.20
2022-09-13T08:16:18.616Z,24.20
2022-09-13T08:18:47.030Z,24.20
2022-09-13T08:21:17.294Z,24.30
2022-09-13T08:23:45.723Z,24.30
2022-09-13T08:26:14.287Z,24.30
2022-09-13T08:28:42.818Z,24.30
2022-09-13T08:31:12.032Z,24.30
2022-09-13T08:33:46.497Z,24.30
2022-09-13T08:36:15.474Z,24.30
2022-09-13T08:38:47.181Z,24.30
2022-09-13T08:41:39.549Z,24.20
2022-09-13T08:44:09.692Z,24.30
2022-09-13T08:46:38.648Z,24.30
2022-09-13T08:49:12.948Z,24.20
2022-09-13T08:51:47.188Z,24.30
2022-09-13T08:54:17.973Z,24.20
2022-09-13T08:56:50.283Z,24.30
2022-09-13T08:59:35.594Z,24.30
2022-09-13T09:02:12.920Z,24.40
2022-09-13T09:05:00.642Z,24.50
2022-09-13T09:07:30.694Z,24.60
2022-09-13T09:10:00.328Z,24.60
2022-09-13T09:12:32.118Z,24.60
2022-09-13T09:15:03.747Z,24.70
2022-09-13T09:17:36.262Z,24.70
2022-09-13T09:20:09.912Z,24.70
2022-09-13T09:22:41.254Z,24.80
2022-09-13T09:25:10.497Z,24.80
2022-09-13T09:27:38.754Z,24.80
2022-09-13T09:30:07.617Z,24.70
2022-09-13T09:32:54.028Z,24.70
2022-09-13T09:35:31.385Z,24.80
2022-09-13T09:38:21.031Z,24.80
2022-09-13T09:40:49.680Z,24.90
2022-09-13T09:43:21.122Z,24.90
2022-09-13T09:45:49.901Z,24.90
2022-09-13T09:48:19.618Z,24.90
2022-09-13T09:50:51.241Z,24.90
2022-09-13T09:53:23.760Z,24.90
2022-09-13T09:55:55.062Z,25.00
2022-09-13T09:58:37.905Z,25.00
2022-09-13T10:01:10.856Z,25.00
2022-09-13T10:03:39.916Z,25.00
2022-09-13T10:06:10.087Z,25.10
2022-09-13T10:08:39.418Z,25.10
2022-09-13T10:11:07.735Z,25.00
2022-09-13T10:13:36.006Z,25.00
2022-09-13T10:16:05.386Z,24.90
2022-09-13T10:18:53.635Z,24.90
2022-09-13T10:21:25.842Z,24.90
2022-09-13T10:23:55.697Z,24.90
2022-09-13T10:26:24.501Z,24.90
2022-09-13T10:28:56.749Z,24.90
2022-09-13T10:31:29.127Z,24.90
2022-09-13T10:33:58.822Z,24.90
2022-09-13T10:36:51.299Z,24.80
2022-09-13T10:39:20.138Z,24.80
2022-09-13T10:41:51.104Z,24.70
2022-09-13T10:44:26.727Z,24.70
2022-09-13T10:46:54.984Z,24.70
2022-09-13T10:49:45.610Z,24.80
2022-09-13T10:52:32.507Z,24.70
2022-09-13T10:55:31.993Z,24.70
2022-09-13T10:58:20.139Z,24.70
2022-09-13T11:01:13.024Z,24.80
2022-09-13T11:03:56.732Z,24.90
2022-09-13T11:06:28.092Z,24.90
2022-09-13T11:09:02.563Z,24.90
2022-09-13T11:11:32.782Z,24.90
2022-09-13T11:14:11.420Z,24.90
2022-09-13T11:16:46.155Z,24.90
2022-09-13T11:19:48.317Z,24.90
2022-09-13T11:22:34.979Z,24.90
2022-09-13T11:25:10.966Z,25.00
2022-09-13T11:27:43.457Z,25.00
2022-09-13T11:30:14.095Z,25.00
2022-09-13T11:32:55.945Z,25.00
2022-09-13T11:35:48.168Z,25.00
2022-09-13T11:38:34.496Z,25.00
2022-09-13T11:41:09.700Z,25.00
2022-09-13T11:43:47.194Z,25.00
2022-09-13T11:46:18.858Z,25.10
2022-09-13T11:49:10.797Z,25.10
2022-09-13T11:51:44.984Z,25.10
2022-09-13T11:54:19.837Z,25.10
2022-09-13T11:56:50.927Z,25.20
2022-09-13T11:59:22.269Z,25.10
2022-09-13T12:01:52.928Z,25.20
2022-09-13T12:04:25.549Z,25.20
2022-09-13T12:06:55.128Z,25.20
2022-09-13T12:09:24.823Z,25.30
2022-09-13T12:11:55.591Z,25.30
2022-09-13T12:14:24.939Z,25.40
2022-09-13T12:16:54.968Z,25.40
2022-09-13T12:19:24.911Z,25.50
2022-09-13T12:21:53.717Z,25.50
2022-09-13T12:24:23.902Z,25.60
2022-09-13T12:26:55.557Z,25.80
2022-09-13T12:29:26.740Z,25.70
2022-09-13T12:31:55.708Z,25.80
2022-09-13T12:34:25.541Z,25.80
2022-09-13T12:37:10.029Z,25.90
2022-09-13T12:40:00.612Z,26.00
2022-09-13T12:43:11.280Z,26.00
2022-09-13T12:45:47.567Z,26.10
2022-09-13T12:48:23.206Z,26.20
2022-09-13T12:50:59.877Z,26.30
2022-09-13T12:53:40.344Z,26.40
2022-09-13T12:56:24.437Z,26.50
2022-09-13T12:59:04.889Z,26.70
2022-09-13T13:01:33.284Z,26.80
2022-09-13T13:04:04.327Z,26.90
2022-09-13T13:06:34.680Z,27.10
2022-09-13T13:09:04.893Z,27.30
2022-09-13T13:11:43.235Z,27.50
2022-09-13T13:14:30.857Z,27.70
2022-09-13T13:17:32.453Z,27.70
2022-09-13T13:20:00.711Z,27.60
2022-09-13T13:22:51.206Z,27.80
2022-09-13T13:25:33.034Z,28.10
2022-09-13T13:28:01.313Z,28.00
2022-09-13T13:30:56.242Z,28.20
2022-09-13T13:33:27.675Z,28.20
2022-09-13T13:35:55.958Z,28.30
2022-09-13T13:38:52.454Z,28.10
2022-09-13T13:41:52.967Z,27.90
2022-09-13T13:44:56.911Z,27.90
2022-09-13T13:47:53.256Z,28.00
2022-09-13T13:50:21.664Z,28.10
2022-09-13T13:52:55.338Z,28.30
2022-09-13T13:55:41.435Z,28.40
2022-09-13T13:58:30.958Z,28.40
2022-09-13T14:01:00.732Z,28.30
2022-09-13T14:03:51.221Z,28.60
2022-09-13T14:06:23.275Z,28.60
2022-09-13T14:11:38.527Z,28.40
2022-09-13T14:14:20.319Z,28.30
2022-09-13T14:16:54.992Z,28.20
2022-09-13T14:19:25.747Z,28.20
2022-09-13T14:22:14.263Z,28.40
2022-09-13T14:24:43.761Z,28.70
2022-09-13T14:27:16.196Z,28.80
2022-09-13T14:29:46.705Z,28.70
2022-09-13T14:32:18.114Z,28.70
2022-09-13T14:34:57.259Z,28.50
2022-09-13T14:37:29.670Z,28.20
2022-09-13T14:40:01.946Z,28.10
2022-09-13T14:42:41.635Z,27.70
2022-09-13T14:45:14.109Z,27.50
2022-09-13T14:47:47.857Z,27.40
2022-09-13T14:50:19.481Z,27.20
2022-09-13T14:52:49.488Z,27.00
2022-09-13T14:55:19.721Z,26.80
2022-09-13T14:57:51.066Z,26.50
2022-09-13T15:00:20.647Z,26.40
2022-09-13T15:02:50.424Z,26.20
2022-09-13T15:05:21.909Z,26.10
2022-09-13T15:07:50.348Z,26.00
2022-09-13T15:10:23.681Z,26.00
2022-09-13T15:12:53.965Z,26.00
2022-09-13T15:15:35.915Z,26.00
2022-09-13T15:18:05.214Z,26.10
2022-09-13T15:20:48.053Z,26.10
2022-09-13T15:23:17.821Z,26.00
2022-09-13T15:25:51.512Z,26.00
2022-09-13T15:28:23.359Z,25.90
2022-09-13T15:30:52.106Z,25.80
2022-09-13T15:33:28.327Z,25.70
2022-09-13T15:36:26.726Z,25.70
2022-09-13T15:39:00.494Z,25.70
2022-09-13T15:41:32.793Z,25.70
2022-09-13T15:44:01.912Z,25.70
2022-09-13T15:46:32.187Z,25.70
2022-09-13T15:49:01.383Z,25.70
2022-09-13T15:51:34.406Z,25.70
2022-09-13T15:54:07.216Z,25.80
2022-09-13T15:56:37.774Z,26.00
2022-09-13T15:59:06.031Z,26.00
2022-09-13T16:01:36.370Z,26.10
2022-09-13T16:04:06.588Z,26.20
2022-09-13T16:06:36.809Z,26.30
2022-09-13T16:09:08.955Z,26.30
2022-09-13T16:11:37.436Z,26.20
2022-09-13T16:14:05.767Z,26.20
2022-09-13T16:16:34.445Z,26.10
2022-09-13T16:19:02.766Z,26.00
2022-09-13T16:21:30.992Z,26.00
2022-09-13T16:24:00.630Z,26.00
2022-09-13T16:26:28.882Z,25.90
2022-09-13T16:28:57.164Z,25.80
2022-09-13T16:31:25.657Z,25.80
2022-09-13T16:33:53.994Z,25.80
2022-09-13T16:36:22.338Z,25.80
2022-09-13T16:38:50.624Z,25.70
2022-09-13T16:41:20.422Z,25.70
2022-09-13T16:43:48.701Z,25.70
2022-09-13T16:46:18.010Z,25.50
2022-09-13T16:48:46.330Z,25.50
2022-09-13T16:51:14.869Z,25.50
2022-09-13T16:53:43.210Z,25.50
2022-09-13T16:56:12.631Z,25.50
2022-09-13T16:58:43.039Z,25.40
2022-09-13T17:01:12.606Z,25.40
2022-09-13T17:03:40.851Z,25.30
2022-09-13T17:06:09.918Z,25.40
2022-09-13T17:08:39.300Z,25.30
2022-09-13T17:11:10.380Z,25.30
2022-09-13T17:13:38.910Z,25.30
2022-09-13T17:16:17.832Z,25.20
2022-09-13T17:18:46.179Z,25.20
2022-09-13T17:21:14.470Z,25.20
2022-09-13T17:23:45.530Z,25.20
2022-09-13T17:26:13.842Z,25.10
2022-09-13T17:28:42.070Z,25.10
2022-09-13T17:31:11.723Z,25.10
2022-09-13T17:33:40.013Z,25.00
2022-09-13T17:36:09.512Z,24.90
2022-09-13T17:38:37.829Z,24.80
2022-09-13T17:41:06.963Z,24.80
2022-09-13T17:43:35.236Z,24.70
2022-09-13T17:46:05.518Z,24.70
2022-09-13T17:48:36.330Z,24.70
2022-09-13T17:51:04.746Z,24.60
2022-09-13T17:53:33.166Z,24.60
2022-09-13T17:56:01.458Z,24.60
2022-09-13T17:58:29.703Z,24.60
2022-09-13T18:01:04.463Z,24.60
2022-09-13T18:03:32.858Z,24.60
2022-09-13T18:06:02.600Z,24.60
2022-09-13T18:08:32.123Z,24.60
2022-09-13T18:11:13.119Z,24.60
2022-09-13T18:13:42.283Z,24.60
2022-09-13T18:16:14.250Z,24.60
2022-09-13T18:18:46.148Z,24.60
2022-09-13T18:21:18.489Z,24.60
2022-09-13T18:23:46.987Z,24.60
2022-09-13T18:26:16.817Z,24.60
2022-09-13T18:28:48.020Z,24.50
2022-09-13T18:31:17.438Z,24.60
2022-09-13T18:33:46.268Z,24.50
2022-09-13T18:36:16.685Z,24.50
2022-09-13T18:38:46.214Z,24.40
2022-09-13T18:41:15.217Z,24.40
2022-09-13T18:43:44.174Z,24.40
2022-09-13T18:46:15.333Z,24.40
2022-09-13T18:48:45.850Z,24.40
2022-09-13T18:51:18.918Z,24.40
2022-09-13T18:53:47.841Z,24.40
2022-09-13T18:56:19.060Z,24.30
2022-09-13T18:58:48.728Z,24.30
2022-09-13T19:01:19.461Z,24.30
2022-09-13T19:03:49.228Z,24.30
2022-09-13T19:06:25.152Z,24.40
2022-09-13T19:08:55.354Z,24.40
2022-09-13T19:11:45.292Z,24.40
2022-09-13T19:14:15.220Z,24.40
2022-09-13T19:16:44.092Z,24.40
2022-09-13T19:19:12.838Z,24.40
2022-09-13T19:21:43.540Z,24.40
2022-09-13T19:24:18.407Z,24.40
2022-09-13T19:26:48.915Z,24.40
2022-09-13T19:29:18.728Z,24.40
2022-09-13T19:31:49.084Z,24.40
2022-09-13T19:34:18.329Z,24.30
2022-09-13T19:36:49.573Z,24.30
2022-09-13T19:39:17.919Z,24.30
2022-09-13T19:41:46.310Z,24.30
2022-09-13T19:44:16.149Z,24.30
2022-09-13T19:46:44.581Z,24.30
2022-09-13T19:49:13.722Z,24.30
2022-09-13T19:51:42.395Z,24.30
2022-09-13T19:54:13.626Z,24.30
2022-09-13T19:56:43.743Z,24.30
2022-09-13T19:59:13.298Z,24.30
2022-09-13T20:01:43.104Z,24.30
2022-09-13T20:04:12.402Z,24.30
2022-09-13T20:06:41.392Z,24.30
2022-09-13T20:09:10.079Z,24.30
2022-09-13T20:11:42.434Z,24.30
2022-09-13T20:14:11.246Z,24.30
2022-09-13T20:16:40.449Z,24.20
2022-09-13T20:19:29.546Z,24.30
2022-09-13T20:21:57.142Z,24.20
2022-09-13T20:24:25.818Z,24.20
2022-09-13T20:26:55.444Z,24.20
2022-09-13T20:29:24.539Z,24.20
2022-09-13T20:31:54.067Z,24.20
2022-09-13T20:34:22.280Z,24.20
2022-09-13T20:36:50.540Z,24.20
2022-09-13T20:39:18.917Z,24.20
2022-09-13T20:41:49.243Z,24.20
2022-09-13T20:44:18.849Z,24.20
2022-09-13T20:46:47.087Z,24.20
2022-09-13T20:49:15.298Z,24.20
2022-09-13T20:51:43.548Z,24.20
2022-09-13T20:54:12.260Z,24.20
2022-09-13T20:56:40.691Z,24.20
2022-09-13T20:59:09.991Z,24.20
2022-09-13T21:01:39.820Z,24.20
2022-09-13T21:04:08.106Z,24.20
2022-09-13T21:06:38.546Z,24.20
2022-09-13T21:09:06.342Z,24.20
2022-09-13T21:11:35.757Z,24.20
2022-09-13T21:14:05.217Z,24.20
2022-09-13T21:16:34.883Z,24.20
2022-09-13T21:19:04.458Z,24.20
2022-09-13T21:21:34.451Z,24.20
2022-09-13T21:24:04.238Z,24.20
2022-09-13T21:26:32.774Z,24.20
2022-09-13T21:29:01.294Z,24.20
2022-09-13T21:31:31.890Z,24.20
2022-09-13T21:34:01.590Z,24.20
2022-09-13T21:36:31.577Z,24.20
2022-09-13T21:39:00.737Z,24.20
2022-09-13T21:41:29.963Z,24.20
2022-09-13T21:43:58.462Z,24.20
2022-09-13T21:46:27.692Z,24.20
2022-09-13T21:48:56.762Z,24.20
2022-09-13T21:51:25.886Z,24.20
2022-09-13T21:53:58.715Z,24.20
2022-09-13T21:56:28.497Z,24.20
2022-09-13T21:58:59.150Z,24.20
2022-09-13T22:01:29.031Z,24.20
2022-09-13T22:03:57.673Z,24.20
2022-09-13T22:06:29.205Z,24.20
2022-09-13T22:09:03.505Z,24.20
2022-09-13T22:11:33.232Z,24.20
2022-09-13T22:14:02.277Z,24.20
2022-09-13T22:16:31.834Z,24.20
2022-09-13T22:19:05.421Z,24.20
2022-09-13T22:21:37.272Z,24.20
2022-09-13T22:24:07.663Z,24.00
2022-09-13T22:26:37.503Z,24.00
2022-09-13T22:29:06.014Z,24.00
2022-09-13T22:31:35.287Z,24.00
2022-09-13T22:34:03.680Z,23.90
2022-09-13T22:36:31.960Z,23.90
2022-09-13T22:39:00.234Z,23.90
2022-09-13T22:41:30.893Z,23.90
2022-09-13T22:43:59.631Z,23.80
2022-09-13T22:46:34.314Z,23.90
2022-09-13T22:49:02.709Z,23.90
2022-09-13T22:51:30.943Z,23.90
2022-09-13T22:54:02.320Z,23.90
2022-09-13T22:56:34.615Z,23.90
2022-09-13T22:59:03.998Z,23.90
2022-09-13T23:01:32.718Z,23.90
2022-09-13T23:04:01.249Z,23.90
2022-09-13T23:06:29.829Z,23.90
2022-09-13T23:09:01.917Z,23.90
2022-09-13T23:11:30.987Z,23.90
2022-09-13T23:14:03.016Z,23.90
2022-09-13T23:16:32.355Z,23.90
2022-09-13T23:19:00.705Z,23.80
2022-09-13T23:21:30.992Z,23.90
2022-09-13T23:23:59.689Z,23.90
2022-09-13T23:26:28.118Z,23.80
2022-09-13T23:28:57.235Z,23.90
2022-09-13T23:31:28.644Z,23.80
2022-09-13T23:33:58.514Z,23.90
2022-09-13T23:36:27.626Z,23.90
2022-09-13T23:38:57.182Z,23.90
2022-09-13T23:41:26.307Z,23.80
2022-09-13T23:43:54.786Z,23.80
2022-09-13T23:46:23.129Z,23.80
2022-09-13T23:48:52.717Z,23.80
2022-09-13T23:51:22.867Z,23.80
2022-09-13T23:53:51.881Z,23.80
2022-09-13T23:56:20.193Z,23.80
2022-09-13T23:58:48.418Z,23.80
